sensor_id;sensor_type;location;lat;lon;timestamp;temperature;humidity
27747;DHT22;15138;51.012;4.692;2022-12-24T00:00:20;11.10;99.90
27747;DHT22;15138;51.012;4.692;2022-12-24T00:02:48;11.10;99.90
27747;DHT22;15138;51.012;4.692;2022-12-24T00:05:17;11.10;99.90
27747;DHT22;15138;51.012;4.692;2022-12-24T00:07:45;11.10;99.90
27747;DHT22;15138;51.012;4.692;2022-12-24T00:10:13;11.10;99.90
27747;DHT22;15138;51.012;4.692;2022-12-24T00:12:41;11.00;99.90
27747;DHT22;15138;51.012;4.692;2022-12-24T00:15:09;11.00;99.90
27747;DHT22;15138;51.012;4.692;2022-12-24T00:17:37;11.10;99.90
27747;DHT22;15138;51.012;4.692;2022-12-24T00:20:06;11.10;99.90
27747;DHT22;15138;51.012;4.692;2022-12-24T00:22:35;11.10;99.90
27747;DHT22;15138;51.012;4.692;2022-12-24T00:25:04;11.00;99.90
27747;DHT22;15138;51.012;4.692;2022-12-24T00:27:32;11.00;99.90
27747;DHT22;15138;51.012;4.692;2022-12-24T00:29:59;11.00;99.90
27747;DHT22;15138;51.012;4.692;2022-12-24T00:32:27;11.00;99.90
27747;DHT22;15138;51.012;4.692;2022-12-24T00:34:55;11.00;99.90
27747;DHT22;15138;51.012;4.692;2022-12-24T00:37:23;10.90;99.90
27747;DHT22;15138;51.012;4.692;2022-12-24T00:39:52;10.90;99.90
27747;DHT22;15138;51.012;4.692;2022-12-24T00:42:20;11.00;99.90
27747;DHT22;15138;51.012;4.692;2022-12-24T00:44:48;10.90;99.90
27747;DHT22;15138;51.012;4.692;2022-12-24T00:47:16;10.90;99.90
27747;DHT22;15138;51.012;4.692;2022-12-24T00:49:44;10.90;99.90
27747;DHT22;15138;51.012;4.692;2022-12-24T00:52:12;10.90;99.90
27747;DHT22;15138;51.012;4.692;2022-12-24T00:54:39;10.90;99.90
27747;DHT22;15138;51.012;4.692;2022-12-24T00:57:09;10.90;99.90
27747;DHT22;15138;51.012;4.692;2022-12-24T00:59:37;10.90;99.90
27747;DHT22;15138;51.012;4.692;2022-12-24T01:02:04;10.90;99.90
27747;DHT22;15138;51.012;4.692;2022-12-24T01:04:32;10.90;99.90
27747;DHT22;15138;51.012;4.692;2022-12-24T01:07:18;11.00;99.90
27747;DHT22;15138;51.012;4.692;2022-12-24T01:09:46;11.00;99.90
27747;DHT22;15138;51.012;4.692;2022-12-24T01:12:15;11.00;99.90
27747;DHT22;15138;51.012;4.692;2022-12-24T01:14:43;11.00;99.90
27747;DHT22;15138;51.012;4.692;2022-12-24T01:17:11;11.00;99.90
27747;DHT22;15138;51.012;4.692;2022-12-24T01:19:39;11.00;99.90
27747;DHT22;15138;51.012;4.692;2022-12-24T01:22:07;11.00;99.90
27747;DHT22;15138;51.012;4.692;2022-12-24T01:24:35;11.00;99.90
27747;DHT22;15138;51.012;4.692;2022-12-24T01:27:03;11.00;99.90
27747;DHT22;15138;51.012;4.692;2022-12-24T01:29:32;11.00;99.90
27747;DHT22;15138;51.012;4.692;2022-12-24T01:32:00;11.00;99.90
27747;DHT22;15138;51.012;4.692;2022-12-24T01:34:28;11.00;99.90
27747;DHT22;15138;51.012;4.692;2022-12-24T01:36:56;11.00;99.90
27747;DHT22;15138;51.012;4.692;2022-12-24T01:39:24;11.00;99.90
27747;DHT22;15138;51.012;4.692;2022-12-24T01:41:52;11.00;99.90
27747;DHT22;15138;51.012;4.692;2022-12-24T01:44:47;10.90;99.90
27747;DHT22;15138;51.012;4.692;2022-12-24T01:47:16;10.90;99.90
27747;DHT22;15138;51.012;4.692;2022-12-24T01:49:46;10.90;99.90
27747;DHT22;15138;51.012;4.692;2022-12-24T01:52:18;10.90;99.90
27747;DHT22;15138;51.012;4.692;2022-12-24T01:54:47;10.80;99.90
27747;DHT22;15138;51.012;4.692;2022-12-24T01:57:17;10.80;99.90
27747;DHT22;15138;51.012;4.692;2022-12-24T01:59:49;10.70;99.90
27747;DHT22;15138;51.012;4.692;2022-12-24T02:02:18;10.70;99.90
27747;DHT22;15138;51.012;4.692;2022-12-24T02:04:48;10.70;99.90
27747;DHT22;15138;51.012;4.692;2022-12-24T02:07:17;10.70;99.90
27747;DHT22;15138;51.012;4.692;2022-12-24T02:09:45;10.70;99.90
27747;DHT22;15138;51.012;4.692;2022-12-24T02:12:13;10.70;99.90
27747;DHT22;15138;51.012;4.692;2022-12-24T02:14:41;10.60;99.90
27747;DHT22;15138;51.012;4.692;2022-12-24T02:17:13;10.60;99.90
27747;DHT22;15138;51.012;4.692;2022-12-24T02:22:35;10.60;99.90
27747;DHT22;15138;51.012;4.692;2022-12-24T02:25:22;10.60;99.90
27747;DHT22;15138;51.012;4.692;2022-12-24T02:27:53;10.60;99.90
27747;DHT22;15138;51.012;4.692;2022-12-24T02:30:23;10.60;99.90
27747;DHT22;15138;51.012;4.692;2022-12-24T02:32:54;10.60;99.90
27747;DHT22;15138;51.012;4.692;2022-12-24T02:35:26;10.60;99.90
27747;DHT22;15138;51.012;4.692;2022-12-24T02:37:58;10.60;99.90
27747;DHT22;15138;51.012;4.692;2022-12-24T02:40:28;10.60;99.90
27747;DHT22;15138;51.012;4.692;2022-12-24T02:43:00;10.60;99.90
27747;DHT22;15138;51.012;4.692;2022-12-24T02:45:31;10.60;99.90
27747;DHT22;15138;51.012;4.692;2022-12-24T02:48:01;10.50;99.90
27747;DHT22;15138;51.012;4.692;2022-12-24T02:50:29;10.60;99.90
27747;DHT22;15138;51.012;4.692;2022-12-24T02:52:56;10.60;99.90
27747;DHT22;15138;51.012;4.692;2022-12-24T02:55:26;10.50;99.90
27747;DHT22;15138;51.012;4.692;2022-12-24T02:58:02;10.60;99.90
27747;DHT22;15138;51.012;4.692;2022-12-24T03:00:37;10.60;99.90
27747;DHT22;15138;51.012;4.692;2022-12-24T03:03:11;10.50;99.90
27747;DHT22;15138;51.012;4.692;2022-12-24T03:05:44;10.60;99.90
27747;DHT22;15138;51.012;4.692;2022-12-24T03:08:15;10.60;99.90
27747;DHT22;15138;51.012;4.692;2022-12-24T03:10:47;10.60;99.90
27747;DHT22;15138;51.012;4.692;2022-12-24T03:13:17;10.60;99.90
27747;DHT22;15138;51.012;4.692;2022-12-24T03:15:47;10.60;99.90
27747;DHT22;15138;51.012;4.692;2022-12-24T03:18:17;10.60;99.90
27747;DHT22;15138;51.012;4.692;2022-12-24T03:20:46;10.60;99.90
27747;DHT22;15138;51.012;4.692;2022-12-24T03:23:15;10.60;99.90
27747;DHT22;15138;51.012;4.692;2022-12-24T03:25:43;10.50;99.90
27747;DHT22;15138;51.012;4.692;2022-12-24T03:28:12;10.60;99.90
27747;DHT22;15138;51.012;4.692;2022-12-24T03:30:41;10.60;99.90
27747;DHT22;15138;51.012;4.692;2022-12-24T03:33:11;10.60;99.90
27747;DHT22;15138;51.012;4.692;2022-12-24T03:35:39;10.60;99.90
27747;DHT22;15138;51.012;4.692;2022-12-24T03:38:07;10.60;99.90
27747;DHT22;15138;51.012;4.692;2022-12-24T03:40:35;10.60;99.90
27747;DHT22;15138;51.012;4.692;2022-12-24T03:43:03;10.70;99.90
27747;DHT22;15138;51.012;4.692;2022-12-24T03:45:31;10.60;99.90
27747;DHT22;15138;51.012;4.692;2022-12-24T03:47:59;10.60;99.90
27747;DHT22;15138;51.012;4.692;2022-12-24T03:50:28;10.60;99.90
27747;DHT22;15138;51.012;4.692;2022-12-24T03:52:56;10.70;99.90
27747;DHT22;15138;51.012;4.692;2022-12-24T03:55:24;10.70;99.90
27747;DHT22;15138;51.012;4.692;2022-12-24T03:57:52;10.70;99.90
27747;DHT22;15138;51.012;4.692;2022-12-24T04:00:20;10.70;99.90
27747;DHT22;15138;51.012;4.692;2022-12-24T04:02:48;10.60;99.90
27747;DHT22;15138;51.012;4.692;2022-12-24T04:05:17;10.70;99.90
27747;DHT22;15138;51.012;4.692;2022-12-24T04:07:46;10.70;99.90
27747;DHT22;15138;51.012;4.692;2022-12-24T04:10:14;10.60;99.90
27747;DHT22;15138;51.012;4.692;2022-12-24T04:12:42;10.60;99.90
27747;DHT22;15138;51.012;4.692;2022-12-24T04:15:10;10.60;99.90
27747;DHT22;15138;51.012;4.692;2022-12-24T04:17:38;10.60;99.90
27747;DHT22;15138;51.012;4.692;2022-12-24T04:20:07;10.60;99.90
27747;DHT22;15138;51.012;4.692;2022-12-24T04:22:35;10.60;99.90
27747;DHT22;15138;51.012;4.692;2022-12-24T04:25:04;10.60;99.90
27747;DHT22;15138;51.012;4.692;2022-12-24T04:27:32;10.60;99.90
27747;DHT22;15138;51.012;4.692;2022-12-24T04:30:00;10.60;99.90
27747;DHT22;15138;51.012;4.692;2022-12-24T04:32:28;10.60;99.90
27747;DHT22;15138;51.012;4.692;2022-12-24T04:34:56;10.60;99.90
27747;DHT22;15138;51.012;4.692;2022-12-24T04:37:24;10.60;99.90
27747;DHT22;15138;51.012;4.692;2022-12-24T04:39:51;10.60;99.90
27747;DHT22;15138;51.012;4.692;2022-12-24T04:42:21;10.60;99.90
27747;DHT22;15138;51.012;4.692;2022-12-24T04:44:49;10.60;99.90
27747;DHT22;15138;51.012;4.692;2022-12-24T04:47:16;10.50;99.90
27747;DHT22;15138;51.012;4.692;2022-12-24T04:49:44;10.60;99.90
27747;DHT22;15138;51.012;4.692;2022-12-24T04:52:12;10.60;99.90
27747;DHT22;15138;51.012;4.692;2022-12-24T04:54:40;10.50;99.90
27747;DHT22;15138;51.012;4.692;2022-12-24T04:57:08;10.50;99.90
27747;DHT22;15138;51.012;4.692;2022-12-24T04:59:37;10.70;99.90
27747;DHT22;15138;51.012;4.692;2022-12-24T05:02:05;10.60;99.90
27747;DHT22;15138;51.012;4.692;2022-12-24T05:04:33;10.60;99.90
27747;DHT22;15138;51.012;4.692;2022-12-24T05:07:01;10.60;99.90
27747;DHT22;15138;51.012;4.692;2022-12-24T05:09:29;10.60;99.90
27747;DHT22;15138;51.012;4.692;2022-12-24T05:11:57;10.60;99.90
27747;DHT22;15138;51.012;4.692;2022-12-24T05:14:24;10.60;99.90
27747;DHT22;15138;51.012;4.692;2022-12-24T05:16:54;10.70;99.90
27747;DHT22;15138;51.012;4.692;2022-12-24T05:19:22;10.90;99.90
27747;DHT22;15138;51.012;4.692;2022-12-24T05:21:50;10.70;99.90
27747;DHT22;15138;51.012;4.692;2022-12-24T05:24:32;10.70;99.90
27747;DHT22;15138;51.012;4.692;2022-12-24T05:27:17;10.70;99.90
27747;DHT22;15138;51.012;4.692;2022-12-24T05:29:45;10.70;99.90
27747;DHT22;15138;51.012;4.692;2022-12-24T05:32:14;10.60;99.90
27747;DHT22;15138;51.012;4.692;2022-12-24T05:34:42;10.70;99.90
27747;DHT22;15138;51.012;4.692;2022-12-24T05:37:10;10.70;99.90
27747;DHT22;15138;51.012;4.692;2022-12-24T05:39:38;10.70;99.90
27747;DHT22;15138;51.012;4.692;2022-12-24T05:42:05;10.60;99.90
27747;DHT22;15138;51.012;4.692;2022-12-24T05:44:33;10.60;99.90
27747;DHT22;15138;51.012;4.692;2022-12-24T05:47:01;10.60;99.90
27747;DHT22;15138;51.012;4.692;2022-12-24T05:49:30;10.50;99.90
27747;DHT22;15138;51.012;4.692;2022-12-24T05:51:58;10.50;99.90
27747;DHT22;15138;51.012;4.692;2022-12-24T05:54:26;10.50;99.90
27747;DHT22;15138;51.012;4.692;2022-12-24T05:56:54;10.50;99.90
27747;DHT22;15138;51.012;4.692;2022-12-24T05:59:22;10.50;99.90
27747;DHT22;15138;51.012;4.692;2022-12-24T06:01:50;10.50;99.90
27747;DHT22;15138;51.012;4.692;2022-12-24T06:04:18;10.50;99.90
27747;DHT22;15138;51.012;4.692;2022-12-24T06:06:55;10.50;99.90
27747;DHT22;15138;51.012;4.692;2022-12-24T06:09:23;10.50;99.90
27747;DHT22;15138;51.012;4.692;2022-12-24T06:11:51;10.50;99.90
27747;DHT22;15138;51.012;4.692;2022-12-24T06:14:19;10.50;99.90
27747;DHT22;15138;51.012;4.692;2022-12-24T06:16:47;10.50;99.90
27747;DHT22;15138;51.012;4.692;2022-12-24T06:19:14;10.50;99.90
27747;DHT22;15138;51.012;4.692;2022-12-24T06:21:42;10.50;99.90
27747;DHT22;15138;51.012;4.692;2022-12-24T06:24:12;10.50;99.90
27747;DHT22;15138;51.012;4.692;2022-12-24T06:26:40;10.50;99.90
27747;DHT22;15138;51.012;4.692;2022-12-24T06:29:08;10.50;99.90
27747;DHT22;15138;51.012;4.692;2022-12-24T06:31:37;10.40;99.90
27747;DHT22;15138;51.012;4.692;2022-12-24T06:34:05;10.50;99.90
27747;DHT22;15138;51.012;4.692;2022-12-24T06:36:33;10.60;99.90
27747;DHT22;15138;51.012;4.692;2022-12-24T06:39:01;10.40;99.90
27747;DHT22;15138;51.012;4.692;2022-12-24T06:41:30;10.50;99.90
27747;DHT22;15138;51.012;4.692;2022-12-24T06:43:58;10.60;99.90
27747;DHT22;15138;51.012;4.692;2022-12-24T06:46:26;10.40;99.90
27747;DHT22;15138;51.012;4.692;2022-12-24T06:48:54;10.70;99.90
27747;DHT22;15138;51.012;4.692;2022-12-24T06:51:22;10.40;99.90
27747;DHT22;15138;51.012;4.692;2022-12-24T06:53:50;10.50;99.90
27747;DHT22;15138;51.012;4.692;2022-12-24T06:56:18;10.40;99.90
27747;DHT22;15138;51.012;4.692;2022-12-24T06:58:48;10.40;99.90
27747;DHT22;15138;51.012;4.692;2022-12-24T07:01:16;10.50;99.90
27747;DHT22;15138;51.012;4.692;2022-12-24T07:03:45;10.40;99.90
27747;DHT22;15138;51.012;4.692;2022-12-24T07:06:15;9.90;99.90
27747;DHT22;15138;51.012;4.692;2022-12-24T07:08:44;10.60;99.90
27747;DHT22;15138;51.012;4.692;2022-12-24T07:11:12;10.50;99.90
27747;DHT22;15138;51.012;4.692;2022-12-24T07:13:40;10.60;99.90
27747;DHT22;15138;51.012;4.692;2022-12-24T07:16:09;10.60;99.90
27747;DHT22;15138;51.012;4.692;2022-12-24T07:18:37;10.60;99.90
27747;DHT22;15138;51.012;4.692;2022-12-24T07:21:05;10.40;99.90
27747;DHT22;15138;51.012;4.692;2022-12-24T07:23:33;10.50;99.90
27747;DHT22;15138;51.012;4.692;2022-12-24T07:26:02;10.40;99.90
27747;DHT22;15138;51.012;4.692;2022-12-24T07:28:30;10.40;99.90
27747;DHT22;15138;51.012;4.692;2022-12-24T07:30:58;10.40;99.90
27747;DHT22;15138;51.012;4.692;2022-12-24T07:33:28;10.70;99.90
27747;DHT22;15138;51.012;4.692;2022-12-24T07:35:56;10.30;99.90
27747;DHT22;15138;51.012;4.692;2022-12-24T07:38:24;10.40;99.90
27747;DHT22;15138;51.012;4.692;2022-12-24T07:40:52;10.40;99.90
27747;DHT22;15138;51.012;4.692;2022-12-24T07:43:20;10.30;99.90
27747;DHT22;15138;51.012;4.692;2022-12-24T07:45:48;10.30;99.90
27747;DHT22;15138;51.012;4.692;2022-12-24T07:48:16;10.30;99.90
27747;DHT22;15138;51.012;4.692;2022-12-24T07:50:45;10.60;99.90
27747;DHT22;15138;51.012;4.692;2022-12-24T07:53:15;10.40;99.90
27747;DHT22;15138;51.012;4.692;2022-12-24T07:55:43;10.40;99.90
27747;DHT22;15138;51.012;4.692;2022-12-24T07:58:11;10.40;99.90
27747;DHT22;15138;51.012;4.692;2022-12-24T08:00:39;10.40;99.90
27747;DHT22;15138;51.012;4.692;2022-12-24T08:03:08;10.40;99.90
27747;DHT22;15138;51.012;4.692;2022-12-24T08:05:37;10.50;99.90
27747;DHT22;15138;51.012;4.692;2022-12-24T08:08:06;10.40;99.90
27747;DHT22;15138;51.012;4.692;2022-12-24T08:10:37;10.50;99.90
27747;DHT22;15138;51.012;4.692;2022-12-24T08:13:05;10.40;99.90
27747;DHT22;15138;51.012;4.692;2022-12-24T08:15:33;10.40;99.90
27747;DHT22;15138;51.012;4.692;2022-12-24T08:18:01;10.50;99.90
27747;DHT22;15138;51.012;4.692;2022-12-24T08:20:28;10.50;99.90
27747;DHT22;15138;51.012;4.692;2022-12-24T08:22:56;10.50;99.90
27747;DHT22;15138;51.012;4.692;2022-12-24T08:25:26;10.50;99.90
27747;DHT22;15138;51.012;4.692;2022-12-24T08:27:53;10.50;99.90
27747;DHT22;15138;51.012;4.692;2022-12-24T08:30:21;10.60;99.90
27747;DHT22;15138;51.012;4.692;2022-12-24T08:32:49;10.60;99.90
27747;DHT22;15138;51.012;4.692;2022-12-24T08:35:17;10.60;99.90
27747;DHT22;15138;51.012;4.692;2022-12-24T08:37:45;10.70;99.90
27747;DHT22;15138;51.012;4.692;2022-12-24T08:40:13;10.60;99.90
27747;DHT22;15138;51.012;4.692;2022-12-24T08:42:42;10.70;99.90
27747;DHT22;15138;51.012;4.692;2022-12-24T08:45:10;10.80;99.90
27747;DHT22;15138;51.012;4.692;2022-12-24T08:47:38;10.90;99.90
27747;DHT22;15138;51.012;4.692;2022-12-24T08:50:06;10.90;99.90
27747;DHT22;15138;51.012;4.692;2022-12-24T08:52:35;10.80;99.90
27747;DHT22;15138;51.012;4.692;2022-12-24T08:55:03;10.80;99.90
27747;DHT22;15138;51.012;4.692;2022-12-24T08:57:33;10.90;99.90
27747;DHT22;15138;51.012;4.692;2022-12-24T09:00:03;10.80;99.90
27747;DHT22;15138;51.012;4.692;2022-12-24T09:02:31;10.80;99.90
27747;DHT22;15138;51.012;4.692;2022-12-24T09:05:00;10.80;99.90
27747;DHT22;15138;51.012;4.692;2022-12-24T09:07:28;10.90;99.90
27747;DHT22;15138;51.012;4.692;2022-12-24T09:09:56;10.90;99.90
27747;DHT22;15138;51.012;4.692;2022-12-24T09:12:24;10.90;99.90
27747;DHT22;15138;51.012;4.692;2022-12-24T09:14:51;10.90;99.90
27747;DHT22;15138;51.012;4.692;2022-12-24T09:17:29;10.90;99.90
27747;DHT22;15138;51.012;4.692;2022-12-24T09:19:57;10.90;99.90
27747;DHT22;15138;51.012;4.692;2022-12-24T09:22:25;10.90;99.90
27747;DHT22;15138;51.012;4.692;2022-12-24T09:24:53;10.90;99.90
27747;DHT22;15138;51.012;4.692;2022-12-24T09:27:21;10.90;99.90
27747;DHT22;15138;51.012;4.692;2022-12-24T09:29:49;10.90;99.90
27747;DHT22;15138;51.012;4.692;2022-12-24T09:32:17;10.80;99.90
27747;DHT22;15138;51.012;4.692;2022-12-24T09:34:46;10.80;99.90
27747;DHT22;15138;51.012;4.692;2022-12-24T09:37:14;10.80;99.90
27747;DHT22;15138;51.012;4.692;2022-12-24T09:39:42;10.90;99.90
27747;DHT22;15138;51.012;4.692;2022-12-24T09:42:13;10.90;99.90
27747;DHT22;15138;51.012;4.692;2022-12-24T09:44:43;10.90;99.90
27747;DHT22;15138;51.012;4.692;2022-12-24T09:47:15;11.00;99.90
27747;DHT22;15138;51.012;4.692;2022-12-24T09:49:50;11.00;99.90
27747;DHT22;15138;51.012;4.692;2022-12-24T09:52:21;11.00;99.90
27747;DHT22;15138;51.012;4.692;2022-12-24T09:54:50;11.10;99.90
27747;DHT22;15138;51.012;4.692;2022-12-24T09:57:22;11.10;99.90
27747;DHT22;15138;51.012;4.692;2022-12-24T09:59:51;11.10;99.90
27747;DHT22;15138;51.012;4.692;2022-12-24T10:02:19;11.10;99.90
27747;DHT22;15138;51.012;4.692;2022-12-24T10:04:49;11.20;99.90
27747;DHT22;15138;51.012;4.692;2022-12-24T10:07:22;11.20;99.90
27747;DHT22;15138;51.012;4.692;2022-12-24T10:09:55;11.20;99.90
27747;DHT22;15138;51.012;4.692;2022-12-24T10:12:28;11.30;99.90
27747;DHT22;15138;51.012;4.692;2022-12-24T10:15:00;11.20;99.90
27747;DHT22;15138;51.012;4.692;2022-12-24T10:17:34;11.30;99.90
27747;DHT22;15138;51.012;4.692;2022-12-24T10:20:10;11.30;99.90
27747;DHT22;15138;51.012;4.692;2022-12-24T10:22:47;11.30;99.90
27747;DHT22;15138;51.012;4.692;2022-12-24T10:25:18;11.30;99.90
27747;DHT22;15138;51.012;4.692;2022-12-24T10:27:48;11.30;99.90
27747;DHT22;15138;51.012;4.692;2022-12-24T10:30:18;11.30;99.90
27747;DHT22;15138;51.012;4.692;2022-12-24T10:32:48;11.40;99.90
27747;DHT22;15138;51.012;4.692;2022-12-24T10:35:19;11.60;99.90
27747;DHT22;15138;51.012;4.692;2022-12-24T10:37:49;11.70;99.90
27747;DHT22;15138;51.012;4.692;2022-12-24T10:40:23;11.70;99.90
27747;DHT22;15138;51.012;4.692;2022-12-24T10:42:53;11.70;99.90
27747;DHT22;15138;51.012;4.692;2022-12-24T10:45:22;11.80;99.90
27747;DHT22;15138;51.012;4.692;2022-12-24T10:47:51;11.70;99.90
27747;DHT22;15138;51.012;4.692;2022-12-24T10:50:25;11.80;99.90
27747;DHT22;15138;51.012;4.692;2022-12-24T10:52:54;11.90;99.90
27747;DHT22;15138;51.012;4.692;2022-12-24T10:55:26;11.80;99.90
27747;DHT22;15138;51.012;4.692;2022-12-24T10:57:59;11.80;99.90
27747;DHT22;15138;51.012;4.692;2022-12-24T11:00:27;11.80;99.90
27747;DHT22;15138;51.012;4.692;2022-12-24T11:03:05;11.80;99.90
27747;DHT22;15138;51.012;4.692;2022-12-24T11:05:36;11.80;99.90
27747;DHT22;15138;51.012;4.692;2022-12-24T11:08:05;11.80;99.90
27747;DHT22;15138;51.012;4.692;2022-12-24T11:10:34;11.80;99.90
27747;DHT22;15138;51.012;4.692;2022-12-24T11:13:02;11.80;99.90
27747;DHT22;15138;51.012;4.692;2022-12-24T11:15:50;11.90;99.90
27747;DHT22;15138;51.012;4.692;2022-12-24T11:18:25;11.80;99.90
27747;DHT22;15138;51.012;4.692;2022-12-24T11:20:55;11.70;99.90
27747;DHT22;15138;51.012;4.692;2022-12-24T11:23:26;11.70;99.90
27747;DHT22;15138;51.012;4.692;2022-12-24T11:25:55;11.90;99.90
27747;DHT22;15138;51.012;4.692;2022-12-24T11:28:24;11.80;99.90
27747;DHT22;15138;51.012;4.692;2022-12-24T11:30:57;11.80;99.90
27747;DHT22;15138;51.012;4.692;2022-12-24T11:33:26;11.80;99.90
27747;DHT22;15138;51.012;4.692;2022-12-24T11:35:56;11.90;99.90
27747;DHT22;15138;51.012;4.692;2022-12-24T11:38:27;12.00;99.90
27747;DHT22;15138;51.012;4.692;2022-12-24T11:40:59;12.00;99.90
27747;DHT22;15138;51.012;4.692;2022-12-24T11:43:32;12.00;99.90
27747;DHT22;15138;51.012;4.692;2022-12-24T11:46:11;12.00;99.90
27747;DHT22;15138;51.012;4.692;2022-12-24T11:48:40;12.00;99.90
27747;DHT22;15138;51.012;4.692;2022-12-24T11:51:17;12.10;99.90
27747;DHT22;15138;51.012;4.692;2022-12-24T11:53:47;12.00;99.90
27747;DHT22;15138;51.012;4.692;2022-12-24T11:56:17;12.10;99.90
27747;DHT22;15138;51.012;4.692;2022-12-24T11:58:48;12.30;99.90
27747;DHT22;15138;51.012;4.692;2022-12-24T12:01:19;12.30;99.90
27747;DHT22;15138;51.012;4.692;2022-12-24T12:03:49;12.40;99.90
27747;DHT22;15138;51.012;4.692;2022-12-24T12:06:27;12.60;99.90
27747;DHT22;15138;51.012;4.692;2022-12-24T12:08:58;12.50;99.90
27747;DHT22;15138;51.012;4.692;2022-12-24T12:11:27;12.50;99.90
27747;DHT22;15138;51.012;4.692;2022-12-24T12:13:57;12.50;99.90
27747;DHT22;15138;51.012;4.692;2022-12-24T12:16:27;12.60;99.90
27747;DHT22;15138;51.012;4.692;2022-12-24T12:18:57;12.60;82.50
27747;DHT22;15138;51.012;4.692;2022-12-24T12:21:29;12.60;93.80
27747;DHT22;15138;51.012;4.692;2022-12-24T12:24:00;12.60;94.10
27747;DHT22;15138;51.012;4.692;2022-12-24T12:26:30;12.60;99.90
27747;DHT22;15138;51.012;4.692;2022-12-24T12:29:00;12.60;19.00
27747;DHT22;15138;51.012;4.692;2022-12-24T12:31:29;12.50;28.60
27747;DHT22;15138;51.012;4.692;2022-12-24T12:34:01;12.60;84.50
27747;DHT22;15138;51.012;4.692;2022-12-24T12:36:32;12.40;26.70
27747;DHT22;15138;51.012;4.692;2022-12-24T12:39:01;12.40;46.30
27747;DHT22;15138;51.012;4.692;2022-12-24T12:41:32;12.80;9.20
27747;DHT22;15138;51.012;4.692;2022-12-24T12:44:15;12.40;47.70
27747;DHT22;15138;51.012;4.692;2022-12-24T12:46:50;12.40;43.50
27747;DHT22;15138;51.012;4.692;2022-12-24T12:49:24;12.50;23.90
27747;DHT22;15138;51.012;4.692;2022-12-24T12:51:56;12.40;1.00
27747;DHT22;15138;51.012;4.692;2022-12-24T12:54:31;12.30;1.00
27747;DHT22;15138;51.012;4.692;2022-12-24T12:57:03;12.40;22.90
27747;DHT22;15138;51.012;4.692;2022-12-24T12:59:34;12.40;40.40
27747;DHT22;15138;51.012;4.692;2022-12-24T13:02:08;12.40;10.90
27747;DHT22;15138;51.012;4.692;2022-12-24T13:04:49;12.40;17.20
27747;DHT22;15138;51.012;4.692;2022-12-24T13:13:24;12.30;1.00
27747;DHT22;15138;51.012;4.692;2022-12-24T13:15:59;12.60;1.00
27747;DHT22;15138;51.012;4.692;2022-12-24T13:18:36;12.30;1.00
27747;DHT22;15138;51.012;4.692;2022-12-24T13:21:11;12.40;15.10
27747;DHT22;15138;51.012;4.692;2022-12-24T13:23:40;12.50;34.10
27747;DHT22;15138;51.012;4.692;2022-12-24T13:26:09;12.70;40.50
27747;DHT22;15138;51.012;4.692;2022-12-24T13:28:39;12.90;20.30
27747;DHT22;15138;51.012;4.692;2022-12-24T13:31:26;12.70;1.00
27747;DHT22;15138;51.012;4.692;2022-12-24T13:34:00;12.70;1.00
27747;DHT22;15138;51.012;4.692;2022-12-24T13:39:16;12.70;1.00
27747;DHT22;15138;51.012;4.692;2022-12-24T13:41:49;12.60;1.00
27747;DHT22;15138;51.012;4.692;2022-12-24T13:44:28;12.60;1.00
27747;DHT22;15138;51.012;4.692;2022-12-24T13:47:03;12.60;1.00
27747;DHT22;15138;51.012;4.692;2022-12-24T13:49:33;12.60;1.00
27747;DHT22;15138;51.012;4.692;2022-12-24T13:52:06;12.60;1.00
27747;DHT22;15138;51.012;4.692;2022-12-24T13:54:34;12.70;2.40
27747;DHT22;15138;51.012;4.692;2022-12-24T13:57:03;12.50;1.00
27747;DHT22;15138;51.012;4.692;2022-12-24T13:59:54;12.60;1.00
27747;DHT22;15138;51.012;4.692;2022-12-24T14:02:23;12.60;1.00
27747;DHT22;15138;51.012;4.692;2022-12-24T14:04:52;12.70;1.00
27747;DHT22;15138;51.012;4.692;2022-12-24T14:07:23;12.70;1.00
27747;DHT22;15138;51.012;4.692;2022-12-24T14:09:51;12.60;1.00
27747;DHT22;15138;51.012;4.692;2022-12-24T14:12:33;12.60;1.00
27747;DHT22;15138;51.012;4.692;2022-12-24T14:17:59;12.50;1.00
27747;DHT22;15138;51.012;4.692;2022-12-24T14:20:28;12.50;1.00
27747;DHT22;15138;51.012;4.692;2022-12-24T14:22:57;12.40;1.00
27747;DHT22;15138;51.012;4.692;2022-12-24T14:25:32;12.40;1.00
27747;DHT22;15138;51.012;4.692;2022-12-24T14:28:04;12.40;1.00
27747;DHT22;15138;51.012;4.692;2022-12-24T14:30:32;12.40;1.00
27747;DHT22;15138;51.012;4.692;2022-12-24T14:33:02;12.40;1.00
27747;DHT22;15138;51.012;4.692;2022-12-24T14:35:34;12.40;1.00
27747;DHT22;15138;51.012;4.692;2022-12-24T14:38:03;12.50;1.00
27747;DHT22;15138;51.012;4.692;2022-12-24T14:40:33;12.40;1.00
27747;DHT22;15138;51.012;4.692;2022-12-24T14:43:04;12.40;1.00
27747;DHT22;15138;51.012;4.692;2022-12-24T14:45:36;12.50;1.00
27747;DHT22;15138;51.012;4.692;2022-12-24T14:48:12;12.50;1.00
27747;DHT22;15138;51.012;4.692;2022-12-24T14:50:47;12.50;1.10
27747;DHT22;15138;51.012;4.692;2022-12-24T14:53:20;12.40;1.00
27747;DHT22;15138;51.012;4.692;2022-12-24T14:55:50;12.70;1.00
27747;DHT22;15138;51.012;4.692;2022-12-24T14:58:27;12.30;1.00
27747;DHT22;15138;51.012;4.692;2022-12-24T15:00:57;12.60;11.90
27747;DHT22;15138;51.012;4.692;2022-12-24T15:03:28;12.20;43.20
27747;DHT22;15138;51.012;4.692;2022-12-24T15:05:57;12.10;16.30
27747;DHT22;15138;51.012;4.692;2022-12-24T15:08:27;12.10;54.20
27747;DHT22;15138;51.012;4.692;2022-12-24T15:10:56;12.00;30.10
27747;DHT22;15138;51.012;4.692;2022-12-24T15:13:27;11.90;25.10
27747;DHT22;15138;51.012;4.692;2022-12-24T15:16:02;11.90;20.90
27747;DHT22;15138;51.012;4.692;2022-12-24T15:18:32;11.80;25.00
27747;DHT22;15138;51.012;4.692;2022-12-24T15:21:01;11.80;60.30
27747;DHT22;15138;51.012;4.692;2022-12-24T15:23:31;11.80;99.90
27747;DHT22;15138;51.012;4.692;2022-12-24T15:26:06;11.80;99.50
27747;DHT22;15138;51.012;4.692;2022-12-24T15:28:35;11.70;99.90
27747;DHT22;15138;51.012;4.692;2022-12-24T15:31:05;11.60;90.60
27747;DHT22;15138;51.012;4.692;2022-12-24T15:33:35;11.50;99.90
27747;DHT22;15138;51.012;4.692;2022-12-24T15:36:04;11.50;99.90
27747;DHT22;15138;51.012;4.692;2022-12-24T15:38:34;11.40;99.90
27747;DHT22;15138;51.012;4.692;2022-12-24T15:41:04;11.40;99.90
27747;DHT22;15138;51.012;4.692;2022-12-24T15:43:33;11.20;99.90
27747;DHT22;15138;51.012;4.692;2022-12-24T15:46:05;11.20;99.90
27747;DHT22;15138;51.012;4.692;2022-12-24T15:48:33;11.20;99.90
27747;DHT22;15138;51.012;4.692;2022-12-24T15:51:05;11.10;99.90
27747;DHT22;15138;51.012;4.692;2022-12-24T15:53:34;11.10;99.90
27747;DHT22;15138;51.012;4.692;2022-12-24T15:56:05;10.90;99.90
27747;DHT22;15138;51.012;4.692;2022-12-24T15:58:34;10.90;99.90
27747;DHT22;15138;51.012;4.692;2022-12-24T16:01:04;10.80;99.90
27747;DHT22;15138;51.012;4.692;2022-12-24T16:03:32;10.60;99.90